sensor_id;sensor_type;location;lat;lon;timestamp;P1;durP1;ratioP1;P2;durP2;ratioP2
39264;SDS011;42646;51.910;7.724;2023-01-01T00:00:10;9.82;;;5.85;;
39264;SDS011;42646;51.910;7.724;2023-01-01T00:02:39;12.38;;;6.25;;
39264;SDS011;42646;51.910;7.724;2023-01-01T00:05:11;16.55;;;6.05;;
39264;SDS011;42646;51.910;7.724;2023-01-01T00:07:38;12.15;;;6.10;;
39264;SDS011;42646;51.910;7.724;2023-01-01T00:10:09;17.00;;;7.35;;
39264;SDS011;42646;51.910;7.724;2023-01-01T00:12:56;17.20;;;7.55;;
39264;SDS011;42646;51.910;7.724;2023-01-01T00:15:26;15.65;;;7.25;;
39264;SDS011;42646;51.910;7.724;2023-01-01T00:17:55;16.55;;;7.47;;
39264;SDS011;42646;51.910;7.724;2023-01-01T00:20:23;14.05;;;7.53;;
39264;SDS011;42646;51.910;7.724;2023-01-01T00:22:58;16.45;;;8.52;;
39264;SDS011;42646;51.910;7.724;2023-01-01T00:25:27;17.48;;;9.27;;
39264;SDS011;42646;51.910;7.724;2023-01-01T00:27:56;17.10;;;9.50;;
39264;SDS011;42646;51.910;7.724;2023-01-01T00:30:30;19.05;;;9.27;;
39264;SDS011;42646;51.910;7.724;2023-01-01T00:32:58;18.55;;;10.15;;
39264;SDS011;42646;51.910;7.724;2023-01-01T00:35:27;17.17;;;10.05;;
39264;SDS011;42646;51.910;7.724;2023-01-01T00:37:55;19.95;;;10.10;;
39264;SDS011;42646;51.910;7.724;2023-01-01T00:40:23;21.88;;;9.90;;
39264;SDS011;42646;51.910;7.724;2023-01-01T00:42:53;17.17;;;9.05;;
39264;SDS011;42646;51.910;7.724;2023-01-01T00:45:21;22.33;;;9.32;;
39264;SDS011;42646;51.910;7.724;2023-01-01T00:47:49;18.75;;;9.13;;
39264;SDS011;42646;51.910;7.724;2023-01-01T00:50:18;14.18;;;7.80;;
39264;SDS011;42646;51.910;7.724;2023-01-01T00:52:46;16.38;;;8.48;;
39264;SDS011;42646;51.910;7.724;2023-01-01T00:55:16;17.30;;;7.53;;
39264;SDS011;42646;51.910;7.724;2023-01-01T00:57:44;19.45;;;6.93;;
39264;SDS011;42646;51.910;7.724;2023-01-01T01:00:14;20.45;;;7.15;;
39264;SDS011;42646;51.910;7.724;2023-01-01T01:02:46;13.95;;;7.07;;
39264;SDS011;42646;51.910;7.724;2023-01-01T01:05:15;15.25;;;6.82;;
39264;SDS011;42646;51.910;7.724;2023-01-01T01:07:43;14.65;;;6.25;;
39264;SDS011;42646;51.910;7.724;2023-01-01T01:10:11;16.58;;;6.60;;
39264;SDS011;42646;51.910;7.724;2023-01-01T01:12:39;13.02;;;5.60;;
39264;SDS011;42646;51.910;7.724;2023-01-01T01:15:07;14.38;;;5.97;;
39264;SDS011;42646;51.910;7.724;2023-01-01T01:17:37;15.80;;;6.20;;
39264;SDS011;42646;51.910;7.724;2023-01-01T01:20:10;13.43;;;6.38;;
39264;SDS011;42646;51.910;7.724;2023-01-01T01:22:42;15.60;;;6.15;;
39264;SDS011;42646;51.910;7.724;2023-01-01T01:25:10;17.75;;;6.25;;
39264;SDS011;42646;51.910;7.724;2023-01-01T01:27:38;14.80;;;6.22;;
39264;SDS011;42646;51.910;7.724;2023-01-01T01:30:06;12.88;;;7.00;;
39264;SDS011;42646;51.910;7.724;2023-01-01T01:32:35;12.50;;;6.45;;
39264;SDS011;42646;51.910;7.724;2023-01-01T01:35:05;12.73;;;7.22;;
39264;SDS011;42646;51.910;7.724;2023-01-01T01:37:33;14.93;;;7.00;;
39264;SDS011;42646;51.910;7.724;2023-01-01T01:40:02;17.65;;;7.55;;
39264;SDS011;42646;51.910;7.724;2023-01-01T01:42:32;17.75;;;7.65;;
39264;SDS011;42646;51.910;7.724;2023-01-01T01:45:00;29.23;;;8.15;;
39264;SDS011;42646;51.910;7.724;2023-01-01T01:47:30;17.20;;;8.48;;
39264;SDS011;42646;51.910;7.724;2023-01-01T01:50:03;20.80;;;9.02;;
39264;SDS011;42646;51.910;7.724;2023-01-01T01:52:38;20.02;;;10.02;;
39264;SDS011;42646;51.910;7.724;2023-01-01T01:55:08;22.87;;;9.27;;
39264;SDS011;42646;51.910;7.724;2023-01-01T01:57:37;16.70;;;9.32;;
39264;SDS011;42646;51.910;7.724;2023-01-01T02:00:07;19.48;;;9.63;;
39264;SDS011;42646;51.910;7.724;2023-01-01T02:02:38;15.07;;;9.30;;
39264;SDS011;42646;51.910;7.724;2023-01-01T02:05:14;16.33;;;9.32;;
39264;SDS011;42646;51.910;7.724;2023-01-01T02:07:44;16.13;;;9.27;;
39264;SDS011;42646;51.910;7.724;2023-01-01T02:10:16;16.50;;;9.07;;
39264;SDS011;42646;51.910;7.724;2023-01-01T02:12:44;16.13;;;8.52;;
39264;SDS011;42646;51.910;7.724;2023-01-01T02:15:17;14.93;;;8.63;;
39264;SDS011;42646;51.910;7.724;2023-01-01T02:17:48;16.20;;;8.10;;
39264;SDS011;42646;51.910;7.724;2023-01-01T02:20:34;17.23;;;9.07;;
39264;SDS011;42646;51.910;7.724;2023-01-01T02:26:34;13.57;;;7.80;;
39264;SDS011;42646;51.910;7.724;2023-01-01T02:29:38;14.05;;;7.43;;
39264;SDS011;42646;51.910;7.724;2023-01-01T02:32:10;12.57;;;7.43;;
39264;SDS011;42646;51.910;7.724;2023-01-01T02:34:42;17.55;;;7.45;;
39264;SDS011;42646;51.910;7.724;2023-01-01T02:37:15;10.15;;;6.68;;
39264;SDS011;42646;51.910;7.724;2023-01-01T02:39:46;14.85;;;7.10;;
39264;SDS011;42646;51.910;7.724;2023-01-01T02:42:18;13.27;;;6.28;;
39264;SDS011;42646;51.910;7.724;2023-01-01T02:44:49;17.65;;;6.15;;
39264;SDS011;42646;51.910;7.724;2023-01-01T02:47:21;13.00;;;6.35;;
39264;SDS011;42646;51.910;7.724;2023-01-01T02:49:53;10.80;;;6.13;;
39264;SDS011;42646;51.910;7.724;2023-01-01T02:55:23;13.00;;;6.15;;
39264;SDS011;42646;51.910;7.724;2023-01-01T02:57:56;11.60;;;5.60;;
39264;SDS011;42646;51.910;7.724;2023-01-01T03:00:53;10.98;;;5.43;;
39264;SDS011;42646;51.910;7.724;2023-01-01T03:06:27;10.38;;;5.60;;
39264;SDS011;42646;51.910;7.724;2023-01-01T03:09:10;13.68;;;4.70;;
39264;SDS011;42646;51.910;7.724;2023-01-01T03:11:44;11.40;;;4.65;;
39264;SDS011;42646;51.910;7.724;2023-01-01T03:14:20;10.60;;;4.47;;
39264;SDS011;42646;51.910;7.724;2023-01-01T03:16:58;8.35;;;4.00;;
39264;SDS011;42646;51.910;7.724;2023-01-01T03:19:32;8.57;;;3.97;;
39264;SDS011;42646;51.910;7.724;2023-01-01T03:24:33;6.20;;;3.17;;
39264;SDS011;42646;51.910;7.724;2023-01-01T03:27:05;8.65;;;3.45;;
39264;SDS011;42646;51.910;7.724;2023-01-01T03:29:37;13.02;;;4.25;;
39264;SDS011;42646;51.910;7.724;2023-01-01T03:34:42;5.43;;;2.70;;
39264;SDS011;42646;51.910;7.724;2023-01-01T03:37:15;7.35;;;2.65;;
39264;SDS011;42646;51.910;7.724;2023-01-01T03:39:50;7.97;;;2.53;;
39264;SDS011;42646;51.910;7.724;2023-01-01T03:42:20;7.53;;;2.63;;
39264;SDS011;42646;51.910;7.724;2023-01-01T03:44:54;7.10;;;2.80;;
39264;SDS011;42646;51.910;7.724;2023-01-01T03:47:30;5.88;;;2.92;;
39264;SDS011;42646;51.910;7.724;2023-01-01T03:49:59;5.60;;;2.42;;
39264;SDS011;42646;51.910;7.724;2023-01-01T03:52:29;8.20;;;2.38;;
39264;SDS011;42646;51.910;7.724;2023-01-01T03:55:05;9.43;;;2.60;;
39264;SDS011;42646;51.910;7.724;2023-01-01T03:57:41;9.93;;;2.42;;
39264;SDS011;42646;51.910;7.724;2023-01-01T04:00:12;6.72;;;2.00;;
39264;SDS011;42646;51.910;7.724;2023-01-01T04:02:46;7.30;;;2.28;;
39264;SDS011;42646;51.910;7.724;2023-01-01T04:05:19;6.22;;;1.90;;
39264;SDS011;42646;51.910;7.724;2023-01-01T04:07:49;5.38;;;1.98;;
39264;SDS011;42646;51.910;7.724;2023-01-01T04:10:19;6.63;;;2.00;;
39264;SDS011;42646;51.910;7.724;2023-01-01T04:12:48;9.88;;;2.03;;
39264;SDS011;42646;51.910;7.724;2023-01-01T04:15:47;4.13;;;1.90;;
39264;SDS011;42646;51.910;7.724;2023-01-01T04:18:17;7.82;;;2.00;;
39264;SDS011;42646;51.910;7.724;2023-01-01T04:20:44;7.88;;;1.92;;
39264;SDS011;42646;51.910;7.724;2023-01-01T04:23:12;8.48;;;1.92;;
39264;SDS011;42646;51.910;7.724;2023-01-01T04:25:40;6.63;;;1.80;;
39264;SDS011;42646;51.910;7.724;2023-01-01T04:28:08;5.43;;;2.00;;
39264;SDS011;42646;51.910;7.724;2023-01-01T04:30:36;6.13;;;1.75;;
39264;SDS011;42646;51.910;7.724;2023-01-01T04:33:03;5.20;;;1.70;;
39264;SDS011;42646;51.910;7.724;2023-01-01T04:35:32;5.63;;;1.90;;
39264;SDS011;42646;51.910;7.724;2023-01-01T04:38:00;5.25;;;1.80;;
39264;SDS011;42646;51.910;7.724;2023-01-01T04:40:29;5.28;;;1.70;;
39264;SDS011;42646;51.910;7.724;2023-01-01T04:42:56;4.57;;;1.65;;
39264;SDS011;42646;51.910;7.724;2023-01-01T04:45:25;6.53;;;1.70;;
39264;SDS011;42646;51.910;7.724;2023-01-01T04:47:54;7.50;;;2.05;;
39264;SDS011;42646;51.910;7.724;2023-01-01T04:50:21;4.60;;;1.77;;
39264;SDS011;42646;51.910;7.724;2023-01-01T04:52:50;5.53;;;1.83;;
39264;SDS011;42646;51.910;7.724;2023-01-01T04:55:20;6.57;;;1.90;;
39264;SDS011;42646;51.910;7.724;2023-01-01T04:57:48;8.48;;;2.45;;
39264;SDS011;42646;51.910;7.724;2023-01-01T05:00:16;5.03;;;1.80;;
39264;SDS011;42646;51.910;7.724;2023-01-01T05:02:44;5.60;;;1.67;;
39264;SDS011;42646;51.910;7.724;2023-01-01T05:05:12;5.72;;;1.60;;
39264;SDS011;42646;51.910;7.724;2023-01-01T05:07:41;4.38;;;1.60;;
39264;SDS011;42646;51.910;7.724;2023-01-01T05:10:12;4.00;;;1.55;;
39264;SDS011;42646;51.910;7.724;2023-01-01T05:12:41;8.30;;;2.00;;
39264;SDS011;42646;51.910;7.724;2023-01-01T05:15:11;7.82;;;1.75;;
39264;SDS011;42646;51.910;7.724;2023-01-01T05:17:39;6.35;;;1.77;;
39264;SDS011;42646;51.910;7.724;2023-01-01T05:20:07;5.50;;;1.65;;
39264;SDS011;42646;51.910;7.724;2023-01-01T05:22:35;6.78;;;1.70;;
39264;SDS011;42646;51.910;7.724;2023-01-01T05:25:05;7.32;;;1.65;;
39264;SDS011;42646;51.910;7.724;2023-01-01T05:27:35;4.38;;;1.73;;
39264;SDS011;42646;51.910;7.724;2023-01-01T05:30:03;5.13;;;1.80;;
39264;SDS011;42646;51.910;7.724;2023-01-01T05:32:31;4.63;;;1.90;;
39264;SDS011;42646;51.910;7.724;2023-01-01T05:41:10;7.13;;;1.92;;
39264;SDS011;42646;51.910;7.724;2023-01-01T05:43:41;8.38;;;2.30;;
39264;SDS011;42646;51.910;7.724;2023-01-01T05:46:11;6.90;;;1.80;;
39264;SDS011;42646;51.910;7.724;2023-01-01T05:48:39;5.05;;;1.80;;
39264;SDS011;42646;51.910;7.724;2023-01-01T05:51:08;5.65;;;1.73;;
39264;SDS011;42646;51.910;7.724;2023-01-01T05:53:38;4.50;;;1.65;;
39264;SDS011;42646;51.910;7.724;2023-01-01T05:56:06;8.20;;;2.15;;
39264;SDS011;42646;51.910;7.724;2023-01-01T05:58:34;15.43;;;2.13;;
39264;SDS011;42646;51.910;7.724;2023-01-01T06:01:08;5.20;;;1.70;;
39264;SDS011;42646;51.910;7.724;2023-01-01T06:03:38;5.10;;;1.55;;
39264;SDS011;42646;51.910;7.724;2023-01-01T06:06:07;5.97;;;1.70;;
39264;SDS011;42646;51.910;7.724;2023-01-01T06:08:36;6.03;;;1.92;;
39264;SDS011;42646;51.910;7.724;2023-01-01T06:11:05;4.78;;;1.90;;
39264;SDS011;42646;51.910;7.724;2023-01-01T06:13:34;3.95;;;1.60;;
39264;SDS011;42646;51.910;7.724;2023-01-01T06:16:03;5.78;;;2.22;;
39264;SDS011;42646;51.910;7.724;2023-01-01T06:18:34;3.65;;;1.70;;
39264;SDS011;42646;51.910;7.724;2023-01-01T06:21:02;4.90;;;2.00;;
39264;SDS011;42646;51.910;7.724;2023-01-01T06:23:33;5.63;;;1.80;;
39264;SDS011;42646;51.910;7.724;2023-01-01T06:26:05;4.43;;;1.80;;
39264;SDS011;42646;51.910;7.724;2023-01-01T06:28:34;5.65;;;1.70;;
39264;SDS011;42646;51.910;7.724;2023-01-01T06:31:04;4.47;;;1.77;;
39264;SDS011;42646;51.910;7.724;2023-01-01T06:33:36;3.95;;;1.73;;
39264;SDS011;42646;51.910;7.724;2023-01-01T06:36:07;6.07;;;1.80;;
39264;SDS011;42646;51.910;7.724;2023-01-01T06:38:38;4.85;;;1.80;;
39264;SDS011;42646;51.910;7.724;2023-01-01T06:41:09;6.15;;;1.90;;
39264;SDS011;42646;51.910;7.724;2023-01-01T06:43:41;6.57;;;1.90;;
39264;SDS011;42646;51.910;7.724;2023-01-01T06:49:10;6.15;;;1.77;;
39264;SDS011;42646;51.910;7.724;2023-01-01T06:52:04;4.68;;;1.98;;
39264;SDS011;42646;51.910;7.724;2023-01-01T06:54:32;4.53;;;1.70;;
39264;SDS011;42646;51.910;7.724;2023-01-01T06:57:02;6.93;;;1.70;;
39264;SDS011;42646;51.910;7.724;2023-01-01T06:59:30;6.03;;;2.00;;
39264;SDS011;42646;51.910;7.724;2023-01-01T07:01:58;6.10;;;1.80;;
39264;SDS011;42646;51.910;7.724;2023-01-01T07:04:28;6.18;;;2.00;;
39264;SDS011;42646;51.910;7.724;2023-01-01T07:06:56;8.55;;;1.98;;
39264;SDS011;42646;51.910;7.724;2023-01-01T07:09:26;6.63;;;2.03;;
39264;SDS011;42646;51.910;7.724;2023-01-01T07:11:54;6.15;;;1.80;;
39264;SDS011;42646;51.910;7.724;2023-01-01T07:14:21;5.15;;;1.83;;
39264;SDS011;42646;51.910;7.724;2023-01-01T07:16:49;8.80;;;1.77;;
39264;SDS011;42646;51.910;7.724;2023-01-01T07:19:17;8.25;;;2.70;;
39264;SDS011;42646;51.910;7.724;2023-01-01T07:22:11;6.00;;;1.95;;
39264;SDS011;42646;51.910;7.724;2023-01-01T07:24:39;5.88;;;2.05;;
39264;SDS011;42646;51.910;7.724;2023-01-01T07:27:07;5.75;;;1.55;;
39264;SDS011;42646;51.910;7.724;2023-01-01T07:29:36;4.97;;;1.80;;
39264;SDS011;42646;51.910;7.724;2023-01-01T07:32:04;4.78;;;1.60;;
39264;SDS011;42646;51.910;7.724;2023-01-01T07:34:32;5.15;;;1.65;;
39264;SDS011;42646;51.910;7.724;2023-01-01T07:37:00;6.10;;;1.92;;
39264;SDS011;42646;51.910;7.724;2023-01-01T07:39:30;6.28;;;1.60;;
39264;SDS011;42646;51.910;7.724;2023-01-01T07:41:57;8.95;;;1.85;;
39264;SDS011;42646;51.910;7.724;2023-01-01T07:44:36;6.68;;;1.70;;
39264;SDS011;42646;51.910;7.724;2023-01-01T07:47:07;4.22;;;1.80;;
39264;SDS011;42646;51.910;7.724;2023-01-01T07:49:45;4.57;;;1.67;;
39264;SDS011;42646;51.910;7.724;2023-01-01T07:55:10;6.53;;;1.90;;
39264;SDS011;42646;51.910;7.724;2023-01-01T07:57:39;5.45;;;1.75;;
39264;SDS011;42646;51.910;7.724;2023-01-01T08:00:07;6.28;;;2.10;;
39264;SDS011;42646;51.910;7.724;2023-01-01T08:02:41;4.78;;;2.05;;
39264;SDS011;42646;51.910;7.724;2023-01-01T08:05:09;5.55;;;2.10;;
39264;SDS011;42646;51.910;7.724;2023-01-01T08:07:37;5.28;;;1.80;;
39264;SDS011;42646;51.910;7.724;2023-01-01T08:10:06;8.77;;;2.55;;
39264;SDS011;42646;51.910;7.724;2023-01-01T08:12:37;6.60;;;2.50;;
39264;SDS011;42646;51.910;7.724;2023-01-01T08:15:05;6.40;;;2.30;;
39264;SDS011;42646;51.910;7.724;2023-01-01T08:17:34;6.10;;;2.25;;
39264;SDS011;42646;51.910;7.724;2023-01-01T08:20:36;4.70;;;2.13;;
39264;SDS011;42646;51.910;7.724;2023-01-01T08:23:04;6.22;;;2.22;;
39264;SDS011;42646;51.910;7.724;2023-01-01T08:25:35;5.75;;;2.20;;
39264;SDS011;42646;51.910;7.724;2023-01-01T08:28:02;6.78;;;2.17;;
39264;SDS011;42646;51.910;7.724;2023-01-01T08:30:31;4.53;;;1.75;;
39264;SDS011;42646;51.910;7.724;2023-01-01T08:32:59;4.47;;;2.00;;
39264;SDS011;42646;51.910;7.724;2023-01-01T08:35:27;5.15;;;1.95;;
39264;SDS011;42646;51.910;7.724;2023-01-01T08:37:57;7.63;;;2.30;;
39264;SDS011;42646;51.910;7.724;2023-01-01T08:40:27;6.88;;;2.10;;
39264;SDS011;42646;51.910;7.724;2023-01-01T08:42:58;3.20;;;1.80;;
39264;SDS011;42646;51.910;7.724;2023-01-01T08:45:26;5.43;;;2.00;;
39264;SDS011;42646;51.910;7.724;2023-01-01T08:47:54;4.93;;;1.88;;
39264;SDS011;42646;51.910;7.724;2023-01-01T08:50:22;5.45;;;2.10;;
39264;SDS011;42646;51.910;7.724;2023-01-01T08:52:54;5.65;;;2.28;;
39264;SDS011;42646;51.910;7.724;2023-01-01T08:55:24;6.03;;;2.00;;
39264;SDS011;42646;51.910;7.724;2023-01-01T08:57:51;5.50;;;2.35;;
39264;SDS011;42646;51.910;7.724;2023-01-01T09:00:20;6.25;;;2.10;;
39264;SDS011;42646;51.910;7.724;2023-01-01T09:02:49;5.57;;;2.35;;
39264;SDS011;42646;51.910;7.724;2023-01-01T09:05:17;5.72;;;2.10;;
39264;SDS011;42646;51.910;7.724;2023-01-01T09:07:44;7.35;;;2.72;;
39264;SDS011;42646;51.910;7.724;2023-01-01T09:10:12;4.30;;;2.15;;
39264;SDS011;42646;51.910;7.724;2023-01-01T09:12:41;5.93;;;2.20;;
39264;SDS011;42646;51.910;7.724;2023-01-01T09:15:11;7.32;;;2.47;;
39264;SDS011;42646;51.910;7.724;2023-01-01T09:17:43;5.78;;;2.20;;
39264;SDS011;42646;51.910;7.724;2023-01-01T09:20:11;7.07;;;1.80;;
39264;SDS011;42646;51.910;7.724;2023-01-01T09:23:05;6.43;;;2.20;;
39264;SDS011;42646;51.910;7.724;2023-01-01T09:25:34;6.38;;;2.13;;
39264;SDS011;42646;51.910;7.724;2023-01-01T09:28:03;4.35;;;1.48;;
39264;SDS011;42646;51.910;7.724;2023-01-01T09:30:32;4.15;;;1.60;;
39264;SDS011;42646;51.910;7.724;2023-01-01T09:33:02;5.43;;;1.75;;
39264;SDS011;42646;51.910;7.724;2023-01-01T09:35:30;4.28;;;1.70;;
39264;SDS011;42646;51.910;7.724;2023-01-01T09:37:58;5.30;;;1.70;;
39264;SDS011;42646;51.910;7.724;2023-01-01T09:40:27;4.53;;;1.50;;
39264;SDS011;42646;51.910;7.724;2023-01-01T09:43:09;4.82;;;1.60;;
39264;SDS011;42646;51.910;7.724;2023-01-01T09:46:13;3.53;;;1.63;;
39264;SDS011;42646;51.910;7.724;2023-01-01T09:48:44;4.47;;;1.50;;
39264;SDS011;42646;51.910;7.724;2023-01-01T09:51:18;4.95;;;1.75;;
39264;SDS011;42646;51.910;7.724;2023-01-01T09:53:49;3.20;;;1.75;;
39264;SDS011;42646;51.910;7.724;2023-01-01T09:56:21;4.25;;;1.73;;
39264;SDS011;42646;51.910;7.724;2023-01-01T09:59:19;4.15;;;2.20;;
39264;SDS011;42646;51.910;7.724;2023-01-01T10:01:49;6.72;;;3.17;;
39264;SDS011;42646;51.910;7.724;2023-01-01T10:04:53;7.00;;;3.30;;
39264;SDS011;42646;51.910;7.724;2023-01-01T10:07:34;6.82;;;3.10;;
39264;SDS011;42646;51.910;7.724;2023-01-01T10:10:12;4.93;;;2.67;;
39264;SDS011;42646;51.910;7.724;2023-01-01T10:12:51;5.25;;;2.20;;
39264;SDS011;42646;51.910;7.724;2023-01-01T10:15:28;6.18;;;2.13;;
39264;SDS011;42646;51.910;7.724;2023-01-01T10:18:01;5.72;;;2.30;;
39264;SDS011;42646;51.910;7.724;2023-01-01T10:20:35;3.60;;;1.80;;
39264;SDS011;42646;51.910;7.724;2023-01-01T10:23:10;3.85;;;1.90;;
39264;SDS011;42646;51.910;7.724;2023-01-01T10:25:41;4.13;;;2.13;;
39264;SDS011;42646;51.910;7.724;2023-01-01T10:28:11;6.50;;;2.33;;
39264;SDS011;42646;51.910;7.724;2023-01-01T10:31:15;5.53;;;2.33;;
39264;SDS011;42646;51.910;7.724;2023-01-01T10:33:48;6.75;;;2.42;;
39264;SDS011;42646;51.910;7.724;2023-01-01T10:36:19;5.88;;;2.40;;
39264;SDS011;42646;51.910;7.724;2023-01-01T10:38:47;5.47;;;2.50;;
39264;SDS011;42646;51.910;7.724;2023-01-01T10:41:16;4.60;;;2.55;;
39264;SDS011;42646;51.910;7.724;2023-01-01T10:43:45;7.85;;;3.28;;
39264;SDS011;42646;51.910;7.724;2023-01-01T10:46:17;6.75;;;3.38;;
39264;SDS011;42646;51.910;7.724;2023-01-01T10:49:03;6.78;;;3.35;;
39264;SDS011;42646;51.910;7.724;2023-01-01T10:51:35;8.00;;;3.38;;
39264;SDS011;42646;51.910;7.724;2023-01-01T10:54:09;5.60;;;3.17;;
39264;SDS011;42646;51.910;7.724;2023-01-01T10:56:57;6.90;;;3.58;;
39264;SDS011;42646;51.910;7.724;2023-01-01T10:59:31;7.00;;;3.10;;
39264;SDS011;42646;51.910;7.724;2023-01-01T11:02:15;7.32;;;3.00;;
39264;SDS011;42646;51.910;7.724;2023-01-01T11:04:47;6.72;;;3.20;;
39264;SDS011;42646;51.910;7.724;2023-01-01T11:10:00;5.38;;;2.70;;
39264;SDS011;42646;51.910;7.724;2023-01-01T11:12:32;5.97;;;2.58;;
39264;SDS011;42646;51.910;7.724;2023-01-01T11:15:32;5.63;;;3.08;;
39264;SDS011;42646;51.910;7.724;2023-01-01T11:18:03;5.95;;;2.88;;
39264;SDS011;42646;51.910;7.724;2023-01-01T11:20:33;6.43;;;3.10;;
39264;SDS011;42646;51.910;7.724;2023-01-01T11:23:16;6.10;;;3.00;;
39264;SDS011;42646;51.910;7.724;2023-01-01T11:28:57;6.15;;;2.63;;
39264;SDS011;42646;51.910;7.724;2023-01-01T11:31:27;8.07;;;3.13;;
39264;SDS011;42646;51.910;7.724;2023-01-01T11:33:57;6.07;;;2.90;;
39264;SDS011;42646;51.910;7.724;2023-01-01T11:36:26;7.55;;;3.15;;
39264;SDS011;42646;51.910;7.724;2023-01-01T11:39:21;6.35;;;2.97;;
39264;SDS011;42646;51.910;7.724;2023-01-01T11:41:53;7.88;;;3.63;;
39264;SDS011;42646;51.910;7.724;2023-01-01T11:44:25;5.00;;;3.10;;
39264;SDS011;42646;51.910;7.724;2023-01-01T11:46:59;6.82;;;3.05;;
39264;SDS011;42646;51.910;7.724;2023-01-01T11:49:28;9.02;;;3.40;;
39264;SDS011;42646;51.910;7.724;2023-01-01T11:51:57;5.85;;;3.10;;
39264;SDS011;42646;51.910;7.724;2023-01-01T11:54:30;9.07;;;3.45;;
39264;SDS011;42646;51.910;7.724;2023-01-01T11:57:03;7.88;;;3.30;;
39264;SDS011;42646;51.910;7.724;2023-01-01T11:59:39;7.32;;;3.05;;
39264;SDS011;42646;51.910;7.724;2023-01-01T12:02:13;7.57;;;3.10;;
39264;SDS011;42646;51.910;7.724;2023-01-01T12:04:45;9.88;;;2.90;;
39264;SDS011;42646;51.910;7.724;2023-01-01T12:07:20;12.93;;;3.05;;
39264;SDS011;42646;51.910;7.724;2023-01-01T12:09:56;7.60;;;2.88;;
39264;SDS011;42646;51.910;7.724;2023-01-01T12:12:32;7.80;;;3.08;;
39264;SDS011;42646;51.910;7.724;2023-01-01T12:15:05;8.90;;;2.58;;
39264;SDS011;42646;51.910;7.724;2023-01-01T12:17:46;7.15;;;2.60;;
39264;SDS011;42646;51.910;7.724;2023-01-01T12:20:21;6.88;;;2.35;;
39264;SDS011;42646;51.910;7.724;2023-01-01T12:22:53;8.93;;;2.97;;
39264;SDS011;42646;51.910;7.724;2023-01-01T12:25:23;8.35;;;2.30;;
39264;SDS011;42646;51.910;7.724;2023-01-01T12:28:01;5.40;;;2.33;;
39264;SDS011;42646;51.910;7.724;2023-01-01T12:30:38;7.80;;;2.80;;
39264;SDS011;42646;51.910;7.724;2023-01-01T12:33:15;6.70;;;2.13;;
39264;SDS011;42646;51.910;7.724;2023-01-01T12:36:00;5.97;;;2.40;;
39264;SDS011;42646;51.910;7.724;2023-01-01T12:38:44;6.72;;;2.28;;
39264;SDS011;42646;51.910;7.724;2023-01-01T12:41:29;8.85;;;2.95;;
39264;SDS011;42646;51.910;7.724;2023-01-01T12:44:05;6.40;;;2.53;;
39264;SDS011;42646;51.910;7.724;2023-01-01T12:46:47;6.53;;;2.17;;
39264;SDS011;42646;51.910;7.724;2023-01-01T12:52:21;6.05;;;1.98;;
39264;SDS011;42646;51.910;7.724;2023-01-01T12:55:07;6.38;;;2.20;;
39264;SDS011;42646;51.910;7.724;2023-01-01T12:57:59;6.88;;;2.20;;
39264;SDS011;42646;51.910;7.724;2023-01-01T13:00:36;8.10;;;2.63;;
39264;SDS011;42646;51.910;7.724;2023-01-01T13:03:08;8.50;;;2.30;;
39264;SDS011;42646;51.910;7.724;2023-01-01T13:05:43;7.45;;;2.25;;
39264;SDS011;42646;51.910;7.724;2023-01-01T13:08:15;7.45;;;2.13;;
39264;SDS011;42646;51.910;7.724;2023-01-01T13:10:44;6.90;;;2.42;;
39264;SDS011;42646;51.910;7.724;2023-01-01T13:13:16;9.27;;;2.50;;
39264;SDS011;42646;51.910;7.724;2023-01-01T13:15:46;7.07;;;2.45;;
39264;SDS011;42646;51.910;7.724;2023-01-01T13:18:17;8.93;;;2.45;;
39264;SDS011;42646;51.910;7.724;2023-01-01T13:20:53;10.20;;;2.42;;
39264;SDS011;42646;51.910;7.724;2023-01-01T13:23:40;5.93;;;1.65;;
39264;SDS011;42646;51.910;7.724;2023-01-01T13:32:04;6.35;;;2.00;;
39264;SDS011;42646;51.910;7.724;2023-01-01T13:34:41;5.90;;;2.20;;
39264;SDS011;42646;51.910;7.724;2023-01-01T13:37:41;8.68;;;2.38;;
39264;SDS011;42646;51.910;7.724;2023-01-01T13:43:27;6.72;;;2.30;;
39264;SDS011;42646;51.910;7.724;2023-01-01T13:46:03;7.93;;;2.30;;
39264;SDS011;42646;51.910;7.724;2023-01-01T13:54:55;6.60;;;2.42;;
39264;SDS011;42646;51.910;7.724;2023-01-01T13:57:58;8.18;;;2.42;;
39264;SDS011;42646;51.910;7.724;2023-01-01T14:00:43;8.00;;;2.30;;
39264;SDS011;42646;51.910;7.724;2023-01-01T14:03:46;5.90;;;2.53;;
39264;SDS011;42646;51.910;7.724;2023-01-01T14:06:19;7.88;;;2.20;;
39264;SDS011;42646;51.910;7.724;2023-01-01T14:08:59;10.32;;;2.97;;
39264;SDS011;42646;51.910;7.724;2023-01-01T14:11:31;6.30;;;2.40;;
39264;SDS011;42646;51.910;7.724;2023-01-01T14:13:59;7.10;;;2.70;;
39264;SDS011;42646;51.910;7.724;2023-01-01T14:16:28;7.05;;;2.55;;
39264;SDS011;42646;51.910;7.724;2023-01-01T14:18:57;5.95;;;2.13;;
39264;SDS011;42646;51.910;7.724;2023-01-01T14:21:27;6.13;;;2.17;;
39264;SDS011;42646;51.910;7.724;2023-01-01T14:23:59;7.25;;;2.13;;
39264;SDS011;42646;51.910;7.724;2023-01-01T14:26:29;7.78;;;2.35;;
39264;SDS011;42646;51.910;7.724;2023-01-01T14:29:00;5.50;;;2.28;;
39264;SDS011;42646;51.910;7.724;2023-01-01T14:31:34;9.35;;;2.40;;
39264;SDS011;42646;51.910;7.724;2023-01-01T14:34:18;7.20;;;2.25;;
39264;SDS011;42646;51.910;7.724;2023-01-01T14:36:51;7.60;;;2.17;;
39264;SDS011;42646;51.910;7.724;2023-01-01T14:39:23;8.55;;;2.33;;
39264;SDS011;42646;51.910;7.724;2023-01-01T14:41:54;7.38;;;2.40;;
39264;SDS011;42646;51.910;7.724;2023-01-01T14:44:26;6.95;;;2.38;;
39264;SDS011;42646;51.910;7.724;2023-01-01T14:47:00;6.07;;;2.35;;
39264;SDS011;42646;51.910;7.724;2023-01-01T14:49:30;9.45;;;2.30;;
39264;SDS011;42646;51.910;7.724;2023-01-01T14:52:00;6.60;;;2.30;;
39264;SDS011;42646;51.910;7.724;2023-01-01T14:54:36;8.63;;;2.20;;
39264;SDS011;42646;51.910;7.724;2023-01-01T14:57:08;5.10;;;2.08;;
39264;SDS011;42646;51.910;7.724;2023-01-01T14:59:44;8.93;;;2.35;;
39264;SDS011;42646;51.910;7.724;2023-01-01T15:02:14;7.28;;;2.78;;
39264;SDS011;42646;51.910;7.724;2023-01-01T15:04:44;9.35;;;2.42;;
39264;SDS011;42646;51.910;7.724;2023-01-01T15:07:18;8.43;;;2.67;;
39264;SDS011;42646;51.910;7.724;2023-01-01T15:09:49;8.07;;;2.45;;
39264;SDS011;42646;51.910;7.724;2023-01-01T15:12:23;6.97;;;2.33;;
39264;SDS011;42646;51.910;7.724;2023-01-01T15:14:51;5.88;;;2.28;;
39264;SDS011;42646;51.910;7.724;2023-01-01T15:17:25;6.28;;;2.13;;
39264;SDS011;42646;51.910;7.724;2023-01-01T15:20:00;6.82;;;2.25;;
39264;SDS011;42646;51.910;7.724;2023-01-01T15:22:30;7.65;;;2.55;;
39264;SDS011;42646;51.910;7.724;2023-01-01T15:25:00;6.65;;;2.38;;
39264;SDS011;42646;51.910;7.724;2023-01-01T15:27:29;7.53;;;2.40;;
39264;SDS011;42646;51.910;7.724;2023-01-01T15:29:59;7.82;;;2.30;;
39264;SDS011;42646;51.910;7.724;2023-01-01T15:32:40;7.05;;;2.60;;
39264;SDS011;42646;51.910;7.724;2023-01-01T15:35:17;6.90;;;2.28;;
39264;SDS011;42646;51.910;7.724;2023-01-01T15:37:56;6.82;;;2.10;;
39264;SDS011;42646;51.910;7.724;2023-01-01T15:40:31;7.63;;;2.10;;
39264;SDS011;42646;51.910;7.724;2023-01-01T15:43:17;5.50;;;2.10;;
39264;SDS011;42646;51.910;7.724;2023-01-01T15:45:50;7.50;;;2.40;;
39264;SDS011;42646;51.910;7.724;2023-01-01T15:48:22;7.25;;;2.30;;
39264;SDS011;42646;51.910;7.724;2023-01-01T15:51:00;6.78;;;2.30;;
39264;SDS011;42646;51.910;7.724;2023-01-01T15:53:32;5.50;;;2.22;;
39264;SDS011;42646;51.910;7.724;2023-01-01T15:56:15;4.80;;;2.05;;
39264;SDS011;42646;51.910;7.724;2023-01-01T15:58:46;5.30;;;2.13;;
39264;SDS011;42646;51.910;7.724;2023-01-01T16:01:19;7.13;;;2.10;;
39264;SDS011;42646;51.910;7.724;2023-01-01T16:03:52;7.65;;;2.13;;
39264;SDS011;42646;51.910;7.724;2023-01-01T16:06:26;5.97;;;2.20;;
39264;SDS011;42646;51.910;7.724;2023-01-01T16:08:55;8.07;;;2.63;;